createdAt,value
2019-05-10T00:00:41.473Z,8.96
2019-05-10T00:03:27.845Z,9.02
2019-05-10T00:06:14.441Z,9.02
2019-05-10T00:08:48.131Z,9.02
2019-05-10T00:11:23.355Z,9.04
2019-05-10T00:14:09.521Z,9.03
2019-05-10T00:16:37.976Z,8.99
2019-05-10T00:19:06.553Z,9.00
2019-05-10T00:21:35.241Z,9.00
2019-05-10T00:24:03.703Z,9.00
2019-05-10T00:26:32.086Z,8.97
2019-05-10T00:29:00.487Z,8.99
2019-05-10T00:31:29.749Z,8.99
2019-05-10T00:33:58.468Z,8.99
2019-05-10T00:36:26.852Z,9.04
2019-05-10T00:38:55.518Z,8.99
2019-05-10T00:41:23.898Z,8.94
2019-05-10T00:43:52.575Z,8.96
2019-05-10T00:46:21.270Z,8.88
2019-05-10T00:48:49.676Z,8.88
2019-05-10T00:51:18.065Z,8.83
2019-05-10T00:53:46.453Z,8.84
2019-05-10T00:56:14.848Z,8.84
2019-05-10T00:58:43.241Z,8.78
2019-05-10T01:01:11.711Z,8.77
2019-05-10T01:03:40.096Z,8.82
2019-05-10T01:06:08.849Z,8.78
2019-05-10T01:08:37.199Z,8.78
2019-05-10T01:11:05.595Z,8.78
2019-05-10T01:13:36.397Z,8.76
2019-05-10T01:16:06.379Z,8.77
2019-05-10T01:18:35.113Z,8.71
2019-05-10T01:21:03.796Z,8.68
2019-05-10T01:23:32.491Z,8.67
2019-05-10T01:26:01.198Z,8.62
2019-05-10T01:28:29.593Z,8.58
2019-05-10T01:30:57.987Z,8.58
2019-05-10T01:33:26.722Z,8.68
2019-05-10T01:35:55.122Z,8.68
2019-05-10T01:38:23.511Z,8.69
2019-05-10T01:40:51.915Z,8.71
2019-05-10T01:43:20.667Z,8.78
2019-05-10T01:45:49.074Z,8.73
2019-05-10T01:48:17.820Z,8.72
2019-05-10T01:50:46.221Z,8.70
2019-05-10T01:53:14.882Z,8.60
2019-05-10T01:55:52.324Z,8.60
2019-05-10T01:58:13.788Z,8.55
2019-05-10T02:00:42.181Z,8.60
2019-05-10T02:03:10.868Z,8.56
2019-05-10T02:05:39.570Z,8.55
2019-05-10T02:08:07.955Z,8.58
2019-05-10T02:10:36.352Z,8.59
2019-05-10T02:13:04.736Z,8.57
2019-05-10T02:15:33.131Z,8.54
2019-05-10T02:18:01.510Z,8.51
2019-05-10T02:20:30.227Z,8.51
2019-05-10T02:22:58.620Z,8.49
2019-05-10T02:25:27.302Z,8.49
2019-05-10T02:27:55.684Z,8.45
2019-05-10T02:30:24.144Z,8.38
2019-05-10T02:32:52.838Z,8.29
2019-05-10T02:35:21.224Z,8.25
2019-05-10T02:37:49.914Z,8.21
2019-05-10T02:40:18.844Z,8.23
2019-05-10T02:42:47.247Z,8.25
2019-05-10T02:45:16.415Z,8.27
2019-05-10T02:47:45.068Z,8.27
2019-05-10T02:50:13.895Z,8.27
2019-05-10T02:52:42.284Z,8.30
2019-05-10T02:55:10.846Z,8.34
2019-05-10T02:57:39.716Z,8.38
2019-05-10T03:00:09.033Z,8.39
2019-05-10T03:02:37.774Z,8.47
2019-05-10T03:05:07.425Z,8.51
2019-05-10T03:07:38.081Z,8.54
2019-05-10T03:10:09.507Z,8.54
2019-05-10T03:12:40.953Z,8.53
2019-05-10T03:15:12.142Z,8.62
2019-05-10T03:17:41.874Z,8.63
2019-05-10T03:20:12.448Z,8.62
2019-05-10T03:22:44.003Z,8.63
2019-05-10T03:25:13.528Z,8.60
2019-05-10T03:27:42.005Z,8.61
2019-05-10T03:30:10.638Z,8.66
2019-05-10T03:32:39.042Z,8.63
2019-05-10T03:35:08.451Z,8.64
2019-05-10T03:37:37.175Z,8.66
2019-05-10T03:40:07.674Z,8.66
2019-05-10T03:42:36.313Z,8.62
2019-05-10T03:45:07.086Z,8.63
2019-05-10T03:47:35.472Z,8.61
2019-05-10T03:50:05.701Z,8.64
2019-05-10T03:52:34.367Z,8.62
2019-05-10T03:55:02.738Z,8.53
2019-05-10T03:57:31.438Z,8.45
2019-05-10T03:59:59.823Z,8.41
2019-05-10T04:02:28.301Z,8.42
2019-05-10T04:04:56.697Z,8.43
2019-05-10T04:07:25.151Z,8.44
2019-05-10T04:09:53.539Z,8.38
2019-05-10T04:12:21.943Z,8.40
2019-05-10T04:14:50.606Z,8.36
2019-05-10T04:17:19.001Z,8.38
2019-05-10T04:19:47.392Z,8.34
2019-05-10T04:22:15.786Z,8.41
2019-05-10T04:24:44.193Z,8.42
2019-05-10T04:27:30.595Z,8.37
2019-05-10T04:29:42.688Z,8.36
2019-05-10T04:32:11.146Z,8.38
2019-05-10T04:34:39.894Z,8.37
2019-05-10T04:37:08.576Z,8.33
2019-05-10T04:39:37.263Z,8.30
2019-05-10T04:42:05.964Z,8.27
2019-05-10T04:44:34.354Z,8.32
2019-05-10T04:47:02.740Z,8.23
2019-05-10T04:49:31.145Z,8.24
2019-05-10T04:51:59.561Z,8.19
2019-05-10T04:54:27.960Z,8.19
2019-05-10T04:56:59.989Z,8.13
2019-05-10T04:59:26.752Z,8.15
2019-05-10T05:01:55.139Z,8.19
2019-05-10T05:04:23.552Z,8.13
2019-05-10T05:06:51.939Z,8.12
2019-05-10T05:09:20.684Z,8.18
2019-05-10T05:11:49.074Z,8.19
2019-05-10T05:14:17.720Z,8.11
2019-05-10T05:16:46.116Z,8.18
2019-05-10T05:19:14.561Z,8.10
2019-05-10T05:21:43.267Z,8.07
2019-05-10T05:24:17.202Z,8.10
2019-05-10T05:26:41.764Z,8.09
2019-05-10T05:29:11.594Z,8.06
2019-05-10T05:31:39.972Z,8.07
2019-05-10T05:34:08.678Z,8.09
2019-05-10T05:36:37.359Z,8.13
2019-05-10T05:39:07.394Z,8.12
2019-05-10T05:41:47.866Z,8.11
2019-05-10T05:44:06.601Z,8.16
2019-05-10T05:46:35.283Z,8.13
2019-05-10T05:49:03.681Z,8.16
2019-05-10T05:51:32.074Z,8.16
2019-05-10T05:54:03.742Z,8.19
2019-05-10T05:56:30.609Z,8.23
2019-05-10T05:58:59.011Z,8.25
2019-05-10T06:01:29.601Z,8.24
2019-05-10T06:04:00.138Z,8.29
2019-05-10T06:06:27.642Z,8.38
2019-05-10T06:08:59.748Z,8.36
2019-05-10T06:11:29.728Z,8.30
2019-05-10T06:13:56.578Z,8.33
2019-05-10T06:16:24.960Z,8.37
2019-05-10T06:18:53.360Z,8.35
2019-05-10T06:21:24.513Z,8.40
2019-05-10T06:23:52.147Z,8.38
2019-05-10T06:26:28.025Z,8.41
2019-05-10T06:29:03.410Z,8.47
2019-05-10T06:31:20.925Z,8.54
2019-05-10T06:33:49.322Z,8.54
2019-05-10T06:36:18.028Z,8.62
2019-05-10T06:38:46.716Z,8.68
2019-05-10T06:41:16.724Z,8.79
2019-05-10T06:43:51.061Z,8.86
2019-05-10T06:46:16.151Z,9.01
2019-05-10T06:48:44.539Z,9.11
2019-05-10T06:51:12.944Z,9.21
2019-05-10T06:53:48.839Z,9.27
2019-05-10T06:56:11.735Z,9.37
2019-05-10T06:58:40.113Z,9.45
2019-05-10T07:01:08.808Z,9.56
2019-05-10T07:03:37.206Z,9.67
2019-05-10T07:06:05.952Z,9.73
2019-05-10T07:08:43.894Z,9.76
2019-05-10T07:11:04.933Z,9.88
2019-05-10T07:13:33.321Z,9.97
2019-05-10T07:16:03.476Z,10.14
2019-05-10T07:18:32.151Z,10.31
2019-05-10T07:21:06.145Z,10.37
2019-05-10T07:23:30.684Z,10.43
2019-05-10T07:25:59.345Z,10.61
2019-05-10T07:28:28.017Z,10.72
2019-05-10T07:30:56.423Z,10.67
2019-05-10T07:33:24.816Z,10.79
2019-05-10T07:35:53.221Z,10.77
2019-05-10T07:38:23.778Z,10.71
2019-05-10T07:40:51.738Z,10.70
2019-05-10T07:43:26.406Z,10.91
2019-05-10T07:45:50.588Z,10.98
2019-05-10T07:48:18.977Z,11.24
2019-05-10T07:50:49.385Z,11.34
2019-05-10T07:53:22.788Z,11.32
2019-05-10T07:55:47.886Z,11.13
2019-05-10T07:58:16.267Z,11.13
2019-05-10T08:00:46.743Z,11.08
2019-05-10T08:03:17.630Z,11.06
2019-05-10T08:05:46.405Z,11.13
2019-05-10T08:08:15.815Z,11.10
2019-05-10T08:10:44.220Z,11.00
2019-05-10T08:13:15.294Z,11.22
2019-05-10T08:15:43.004Z,11.36
2019-05-10T08:18:15.310Z,11.36
2019-05-10T08:20:50.306Z,11.39
2019-05-10T08:23:13.094Z,11.37
2019-05-10T08:25:46.846Z,11.36
2019-05-10T08:28:12.763Z,11.45
2019-05-10T08:30:52.358Z,11.41
2019-05-10T08:33:14.904Z,11.51
2019-05-10T08:35:46.080Z,11.62
2019-05-10T08:38:13.767Z,11.63
2019-05-10T08:40:43.110Z,11.59
2019-05-10T08:43:16.105Z,11.69
2019-05-10T08:45:44.961Z,11.66
2019-05-10T08:48:12.744Z,11.73
2019-05-10T08:50:53.366Z,11.87
2019-05-10T08:53:16.243Z,12.08
2019-05-10T08:55:43.248Z,12.07
2019-05-10T09:01:12.138Z,12.19
2019-05-10T09:03:28.677Z,12.40
2019-05-10T09:05:57.073Z,12.62
2019-05-10T09:08:28.555Z,12.53
2019-05-10T09:10:55.614Z,12.61
2019-05-10T09:13:28.843Z,12.42
2019-05-10T09:15:56.805Z,12.18
2019-05-10T09:18:24.266Z,12.24
2019-05-10T09:20:54.596Z,12.27
2019-05-10T09:23:23.615Z,12.18
2019-05-10T09:25:52.146Z,12.17
2019-05-10T09:28:21.938Z,11.85
2019-05-10T09:30:57.517Z,12.01
2019-05-10T09:33:22.387Z,11.96
2019-05-10T09:35:54.309Z,11.86
2019-05-10T09:38:22.152Z,11.90
2019-05-10T09:40:55.960Z,11.99
2019-05-10T09:43:24.073Z,11.89
2019-05-10T09:45:53.071Z,11.83
2019-05-10T09:48:22.874Z,11.95
2019-05-10T09:50:53.055Z,12.12
2019-05-10T09:53:25.616Z,12.17
2019-05-10T09:56:00.176Z,12.28
2019-05-10T09:58:22.509Z,12.32
2019-05-10T10:00:51.168Z,12.55
2019-05-10T10:03:19.828Z,12.52
2019-05-10T10:05:48.486Z,12.69
2019-05-10T10:08:17.650Z,12.75
2019-05-10T10:10:47.516Z,12.90
2019-05-10T10:13:33.949Z,12.96
2019-05-10T10:15:51.541Z,13.06
2019-05-10T10:18:21.331Z,13.22
2019-05-10T10:20:48.165Z,13.01
2019-05-10T10:23:17.356Z,13.32
2019-05-10T10:25:48.230Z,13.34
2019-05-10T10:28:17.503Z,13.45
2019-05-10T10:30:50.361Z,13.61
2019-05-10T10:33:24.885Z,13.42
2019-05-10T10:35:48.120Z,13.37
2019-05-10T10:38:17.934Z,13.30
2019-05-10T10:40:46.698Z,13.37
2019-05-10T10:43:15.109Z,13.59
2019-05-10T10:45:43.656Z,13.33
2019-05-10T10:48:13.028Z,13.40
2019-05-10T10:50:44.509Z,13.37
2019-05-10T10:53:11.984Z,13.81
2019-05-10T10:55:40.517Z,14.10
2019-05-10T10:58:10.748Z,14.26
2019-05-10T11:00:39.874Z,14.41
2019-05-10T11:03:08.271Z,14.52
2019-05-10T11:05:36.663Z,14.57
2019-05-10T11:08:05.062Z,14.50
2019-05-10T11:10:33.573Z,14.61
2019-05-10T11:13:10.704Z,14.23
2019-05-10T11:15:35.938Z,14.00
2019-05-10T11:18:02.225Z,14.15
2019-05-10T11:20:31.800Z,14.41
2019-05-10T11:23:00.832Z,14.70
2019-05-10T11:25:29.286Z,14.43
2019-05-10T11:28:00.935Z,14.45
2019-05-10T11:30:27.885Z,14.60
2019-05-10T11:32:56.286Z,14.49
2019-05-10T11:35:30.979Z,14.44
2019-05-10T11:37:54.823Z,14.36
2019-05-10T11:40:30.758Z,14.28
2019-05-10T11:42:53.843Z,14.45
2019-05-10T11:45:26.072Z,14.51
2019-05-10T11:47:54.324Z,14.61
2019-05-10T11:50:31.530Z,14.75
2019-05-10T11:52:53.872Z,14.56
2019-05-10T11:55:22.326Z,14.87
2019-05-10T11:58:02.061Z,15.13
2019-05-10T12:00:29.246Z,15.24
2019-05-10T12:05:26.431Z,15.62
2019-05-10T12:07:54.564Z,15.81
2019-05-10T12:10:25.707Z,15.71
2019-05-10T12:13:06.194Z,15.77
2019-05-10T12:15:25.347Z,15.67
2019-05-10T12:17:57.986Z,15.83
2019-05-10T12:20:26.914Z,15.79
2019-05-10T12:22:52.494Z,15.66
2019-05-10T12:25:37.844Z,15.66
2019-05-10T12:27:52.315Z,15.68
2019-05-10T12:30:21.624Z,15.30
2019-05-10T12:32:56.307Z,15.29
2019-05-10T12:35:21.334Z,15.27
2019-05-10T12:37:54.153Z,15.22
2019-05-10T12:40:23.878Z,15.24
2019-05-10T12:42:50.458Z,15.40
2019-05-10T12:45:22.884Z,15.69
2019-05-10T12:47:51.662Z,15.55
2019-05-10T12:50:20.501Z,15.79
2019-05-10T12:53:02.623Z,15.84
2019-05-10T12:55:19.286Z,15.84
2019-05-10T12:57:47.678Z,15.98
2019-05-10T13:00:17.477Z,15.36
2019-05-10T13:02:51.070Z,15.14
2019-05-10T13:05:16.355Z,15.25
2019-05-10T13:07:44.939Z,15.23
2019-05-10T13:10:13.847Z,14.87
2019-05-10T13:12:46.907Z,14.67
2019-05-10T13:15:13.228Z,14.59
2019-05-10T13:17:44.024Z,14.19
2019-05-10T13:20:12.384Z,13.89
2019-05-10T13:22:41.084Z,14.05
2019-05-10T13:25:10.227Z,13.97
2019-05-10T13:27:38.923Z,14.28
2019-05-10T13:30:08.252Z,14.73
2019-05-10T13:32:36.965Z,14.97
2019-05-10T13:35:06.985Z,15.37
2019-05-10T13:37:35.668Z,15.43
2019-05-10T13:40:08.390Z,15.60
2019-05-10T13:42:43.232Z,16.38
2019-05-10T13:45:07.565Z,16.20
2019-05-10T13:47:35.965Z,16.83
2019-05-10T13:50:06.205Z,16.82
2019-05-10T13:52:40.711Z,16.62
2019-05-10T13:55:06.678Z,16.33
2019-05-10T13:57:35.063Z,16.41
2019-05-10T14:00:05.448Z,15.89
2019-05-10T14:02:34.910Z,15.68
2019-05-10T14:05:04.124Z,15.52
2019-05-10T14:07:32.839Z,15.28
2019-05-10T14:10:01.212Z,15.30
2019-05-10T14:12:29.605Z,15.85
2019-05-10T14:15:02.607Z,16.10
2019-05-10T14:17:28.331Z,16.15
2019-05-10T14:19:57.057Z,16.53
2019-05-10T14:22:25.460Z,16.65
2019-05-10T14:24:58.904Z,16.37
2019-05-10T14:27:24.019Z,16.21
2019-05-10T14:29:52.733Z,16.34
2019-05-10T14:32:21.129Z,16.39
2019-05-10T14:34:49.520Z,16.43
2019-05-10T14:37:19.846Z,16.59
2019-05-10T14:39:48.415Z,16.18
2019-05-10T14:42:16.812Z,16.34
2019-05-10T14:44:45.206Z,16.57
2019-05-10T14:47:13.951Z,16.74
2019-05-10T14:49:46.907Z,16.79
2019-05-10T14:52:12.767Z,16.84
2019-05-10T14:54:44.109Z,16.84
2019-05-10T14:57:12.063Z,16.80
2019-05-10T14:59:40.445Z,16.94
2019-05-10T15:02:08.840Z,16.85
2019-05-10T15:04:46.611Z,17.03
2019-05-10T15:07:08.606Z,17.05
2019-05-10T15:09:37.744Z,16.79
2019-05-10T15:12:10.177Z,16.62
2019-05-10T15:14:36.872Z,16.77
2019-05-10T15:17:05.281Z,17.10
2019-05-10T15:19:33.669Z,17.25
2019-05-10T15:22:02.341Z,17.37
2019-05-10T15:24:31.208Z,17.39
2019-05-10T15:26:59.603Z,17.39
2019-05-10T15:29:28.273Z,17.14
2019-05-10T15:31:56.961Z,17.01
2019-05-10T15:34:25.346Z,16.77
2019-05-10T15:36:53.753Z,16.59
2019-05-10T15:39:23.017Z,16.38
2019-05-10T15:41:53.739Z,16.46
2019-05-10T15:44:30.264Z,16.66
2019-05-10T15:46:52.876Z,16.50
2019-05-10T15:49:24.354Z,16.41
2019-05-10T15:51:56.762Z,16.48
2019-05-10T15:54:21.796Z,16.82
2019-05-10T15:56:50.230Z,17.15
2019-05-10T15:59:21.241Z,17.07
2019-05-10T16:01:49.244Z,16.75
2019-05-10T16:04:17.634Z,16.27
2019-05-10T16:06:46.031Z,16.27
2019-05-10T16:09:19.140Z,16.41
2019-05-10T16:11:44.545Z,16.59
2019-05-10T16:14:12.937Z,16.84
2019-05-10T16:16:41.345Z,16.83
2019-05-10T16:19:12.917Z,17.12
2019-05-10T16:21:40.114Z,17.36
2019-05-10T16:24:08.522Z,17.21
2019-05-10T16:26:37.179Z,17.45
2019-05-10T16:29:05.865Z,17.63
2019-05-10T16:31:34.257Z,17.16
2019-05-10T16:34:03.642Z,17.13
2019-05-10T16:36:32.333Z,17.19
2019-05-10T16:39:01.980Z,17.32
2019-05-10T16:41:30.511Z,16.94
2019-05-10T16:44:00.170Z,17.20
2019-05-10T16:46:29.025Z,17.30
2019-05-10T16:48:57.920Z,17.07
2019-05-10T16:51:26.313Z,17.23
2019-05-10T16:53:54.716Z,17.26
2019-05-10T16:56:23.108Z,17.23
2019-05-10T16:58:53.139Z,16.90
2019-05-10T17:01:24.966Z,16.78
2019-05-10T17:03:59.674Z,16.46
2019-05-10T17:06:21.879Z,16.50
2019-05-10T17:08:50.273Z,16.50
2019-05-10T17:11:18.837Z,16.51
2019-05-10T17:13:47.548Z,16.57
2019-05-10T17:16:18.511Z,16.39
2019-05-10T17:18:50.050Z,16.48
2019-05-10T17:21:16.179Z,16.32
2019-05-10T17:23:46.889Z,16.21
2019-05-10T17:26:14.708Z,15.98
2019-05-10T17:28:43.347Z,16.00
2019-05-10T17:31:12.034Z,15.86
2019-05-10T17:33:42.655Z,15.77
2019-05-10T17:36:14.509Z,15.71
2019-05-10T17:38:41.389Z,15.67
2019-05-10T17:41:10.075Z,15.49
2019-05-10T17:43:40.011Z,15.53
2019-05-10T17:46:12.775Z,15.28
2019-05-10T17:48:40.728Z,15.09
2019-05-10T17:51:09.001Z,14.81
2019-05-10T17:53:37.415Z,14.79
2019-05-10T17:56:05.797Z,14.68
2019-05-10T17:58:35.034Z,14.59
2019-05-10T18:01:03.758Z,14.49
2019-05-10T18:03:32.494Z,14.46
2019-05-10T18:06:01.244Z,14.35
2019-05-10T18:08:29.704Z,14.29
2019-05-10T18:11:03.768Z,14.21
2019-05-10T18:13:28.504Z,14.12
2019-05-10T18:15:56.910Z,14.04
2019-05-10T18:18:25.583Z,13.97
2019-05-10T18:20:54.000Z,13.88
2019-05-10T18:23:23.010Z,13.76
2019-05-10T18:25:57.803Z,13.66
2019-05-10T18:28:22.032Z,13.57
2019-05-10T18:30:50.459Z,13.45
2019-05-10T18:33:18.935Z,13.40
2019-05-10T18:35:52.212Z,13.37
2019-05-10T18:38:17.739Z,13.28
2019-05-10T18:40:46.140Z,13.18
2019-05-10T18:43:14.531Z,13.06
2019-05-10T18:48:12.271Z,13.03
2019-05-10T18:50:45.442Z,12.90
2019-05-10T18:53:11.133Z,12.86
2019-05-10T18:55:39.496Z,12.79
2019-05-10T18:58:08.147Z,12.78
2019-05-10T19:00:40.137Z,12.67
2019-05-10T19:03:07.115Z,12.63
2019-05-10T19:05:35.852Z,12.60
2019-05-10T19:08:05.975Z,12.54
2019-05-10T19:10:34.433Z,12.43
2019-05-10T19:13:05.076Z,12.33
2019-05-10T19:15:33.251Z,12.33
2019-05-10T19:18:01.645Z,12.27
2019-05-10T19:20:30.042Z,12.23
2019-05-10T19:22:58.709Z,12.23
2019-05-10T19:25:27.115Z,12.18
2019-05-10T19:27:55.497Z,12.17
2019-05-10T19:30:24.254Z,12.14
2019-05-10T19:32:56.507Z,12.16
2019-05-10T19:35:22.757Z,12.22
2019-05-10T19:37:51.141Z,12.26
2019-05-10T19:40:19.830Z,12.23
2019-05-10T19:42:49.532Z,12.25
2019-05-10T19:45:21.091Z,12.22
2019-05-10T19:47:49.853Z,12.19
2019-05-10T19:50:24.335Z,12.20
2019-05-10T19:52:49.279Z,12.20
2019-05-10T19:55:19.611Z,12.19
2019-05-10T19:57:49.449Z,12.16
2019-05-10T20:00:18.457Z,12.14
2019-05-10T20:02:46.839Z,12.10
2019-05-10T20:05:15.303Z,12.10
2019-05-10T20:07:46.213Z,12.02
2019-05-10T20:10:14.216Z,11.99
2019-05-10T20:12:42.883Z,11.88
2019-05-10T20:15:11.773Z,11.73
2019-05-10T20:17:40.481Z,11.59
2019-05-10T20:20:10.296Z,11.48
2019-05-10T20:22:38.709Z,11.36
2019-05-10T20:25:07.545Z,11.29
2019-05-10T20:27:35.933Z,11.30
2019-05-10T20:30:07.260Z,11.37
2019-05-10T20:32:36.173Z,11.36
2019-05-10T20:35:06.767Z,11.46
2019-05-10T20:37:35.173Z,11.44
2019-05-10T20:40:04.238Z,11.34
2019-05-10T20:42:32.640Z,11.30
2019-05-10T20:45:07.662Z,11.28
2019-05-10T20:47:31.457Z,11.23
2019-05-10T20:50:00.155Z,11.24
2019-05-10T20:52:28.558Z,11.24
2019-05-10T20:54:57.210Z,11.23
2019-05-10T20:57:25.609Z,11.19
2019-05-10T20:59:53.999Z,11.17
2019-05-10T21:02:22.402Z,11.13
2019-05-10T21:04:50.798Z,11.11
2019-05-10T21:07:19.515Z,11.06
2019-05-10T21:09:47.913Z,11.03
2019-05-10T21:12:16.323Z,11.03
2019-05-10T21:14:45.068Z,11.01
2019-05-10T21:17:13.466Z,10.99
2019-05-10T21:19:41.857Z,10.93
2019-05-10T21:22:10.270Z,10.93
2019-05-10T21:24:38.990Z,10.91
2019-05-10T21:27:07.681Z,10.91
2019-05-10T21:29:36.064Z,10.92
2019-05-10T21:32:04.805Z,10.92
2019-05-10T21:34:33.277Z,10.89
2019-05-10T21:37:01.681Z,10.86
2019-05-10T21:39:30.106Z,10.85
2019-05-10T21:41:58.561Z,10.82
2019-05-10T21:44:26.937Z,10.79
2019-05-10T21:46:55.341Z,10.73
2019-05-10T21:49:23.772Z,10.71
2019-05-10T21:51:52.212Z,10.70
2019-05-10T21:54:20.645Z,10.71
2019-05-10T21:56:49.079Z,10.72
2019-05-10T21:59:17.497Z,10.71
2019-05-10T22:01:46.009Z,10.70
2019-05-10T22:04:14.736Z,10.69
2019-05-10T22:06:43.159Z,10.68
2019-05-10T22:09:11.860Z,10.72
2019-05-10T22:11:40.281Z,10.71
2019-05-10T22:14:08.730Z,10.74
2019-05-10T22:16:37.147Z,10.70
2019-05-10T22:19:05.585Z,10.69
2019-05-10T22:21:34.313Z,10.65
2019-05-10T22:24:02.775Z,10.65
2019-05-10T22:26:31.203Z,10.61
2019-05-10T22:28:59.657Z,10.57
2019-05-10T22:31:28.092Z,10.57
2019-05-10T22:33:56.820Z,10.58
2019-05-10T22:36:25.240Z,10.56
2019-05-10T22:39:06.458Z,10.56
2019-05-10T22:41:24.103Z,10.55
2019-05-10T22:43:52.903Z,10.53
2019-05-10T22:46:21.327Z,10.47
2019-05-10T22:48:50.064Z,10.43
2019-05-10T22:51:18.849Z,10.42
2019-05-10T22:53:59.064Z,10.40
2019-05-10T22:56:17.443Z,10.38
2019-05-10T22:58:45.872Z,10.41
2019-05-10T23:01:14.301Z,10.41
2019-05-10T23:03:43.108Z,10.43
2019-05-10T23:06:12.074Z,10.47
2019-05-10T23:08:40.512Z,10.49
2019-05-10T23:11:09.274Z,10.51
2019-05-10T23:13:37.710Z,10.47
2019-05-10T23:16:06.431Z,10.45
2019-05-10T23:18:34.869Z,10.44
2019-05-10T23:21:03.297Z,10.45
2019-05-10T23:23:31.736Z,10.43
2019-05-10T23:26:00.168Z,10.42
2019-05-10T23:28:28.946Z,10.39
2019-05-10T23:30:57.375Z,10.42
2019-05-10T23:33:25.813Z,10.41
2019-05-10T23:35:54.253Z,10.40
2019-05-10T23:38:22.694Z,10.39
2019-05-10T23:40:51.120Z,10.39
2019-05-10T23:43:19.847Z,10.37
2019-05-10T23:45:48.277Z,10.34
2019-05-10T23:48:16.721Z,10.36
2019-05-10T23:50:45.152Z,10.39
2019-05-10T23:53:14.156Z,10.34
2019-05-10T23:55:42.577Z,10.33
2019-05-10T23:58:11.016Z,10.34
